Los Ranchos del Rio, New Mexico
Current Conditions -  °F | °C
As of 11:51 AM on Thursday 30 Oct 2014 (Local Time) from KELP Reporting Station
Clear Clear  
Wind Chill: 73°   Ceiling: Unl
Heat Index: 73°   Visibility: 10mi
Dew Point: 40°   Wind: 9mph
Humidity: 30%   Direction: 10°N
Pressure: 30.23"   Gusts: NA
Location:  31.8707°N, 106.67°W
Report Text: KELP 301751Z 01008KT 10SM CLR 23/04 A3023 RMK AO2 SLP182 T02280044 10228 20111 58001
Loading
Personal Weather Stations






























Interactive Weather Map
Tropical Storm Tracking
New forecast layout! Learn more

10-Day Weather Forecast

Advertisements
Track Severe Weather on mobile